You are listening to:
KSTS Tower - Santa Rosa, California, United States

KSTS 151353Z 19003KT 10SM FU CLR 10/08 A3002 RMK AO2 SLP159 T01000078

If stream doesn't start automatically press the play button
If stream stops then reload player then press play